createdAt,value
2023-03-19T00:00:29.699Z,5.67
2023-03-19T00:02:56.669Z,5.23
2023-03-19T00:05:23.547Z,5.70
2023-03-19T00:07:50.556Z,5.13
2023-03-19T00:10:17.902Z,5.93
2023-03-19T00:12:45.140Z,5.67
2023-03-19T00:15:14.689Z,5.77
2023-03-19T00:17:43.084Z,4.83
2023-03-19T00:20:12.423Z,5.40
2023-03-19T00:22:40.264Z,5.50
2023-03-19T00:25:08.609Z,5.40
2023-03-19T00:27:37.355Z,5.57
2023-03-19T00:30:06.262Z,6.00
2023-03-19T00:32:35.682Z,5.77
2023-03-19T00:35:03.741Z,5.43
2023-03-19T00:37:30.480Z,8.47
2023-03-19T00:39:57.606Z,7.30
2023-03-19T00:42:24.373Z,6.87
2023-03-19T00:44:51.153Z,6.30
2023-03-19T00:47:17.968Z,6.77
2023-03-19T00:49:44.797Z,6.43
2023-03-19T00:52:11.593Z,6.57
2023-03-19T00:54:38.387Z,6.70
2023-03-19T00:57:05.660Z,7.27
2023-03-19T00:59:32.538Z,5.90
2023-03-19T01:02:00.335Z,6.43
2023-03-19T01:04:27.343Z,6.50
2023-03-19T01:06:54.127Z,6.03
2023-03-19T01:09:21.370Z,6.23
2023-03-19T01:11:48.120Z,5.87
2023-03-19T01:14:17.135Z,5.77
2023-03-19T01:16:43.923Z,5.50
2023-03-19T01:19:10.752Z,5.90
2023-03-19T01:21:37.614Z,5.70
2023-03-19T01:24:04.479Z,6.17
2023-03-19T01:26:31.408Z,5.30
2023-03-19T01:28:58.586Z,6.00
2023-03-19T01:31:25.421Z,5.70
2023-03-19T01:33:52.791Z,6.00
2023-03-19T01:36:19.560Z,5.10
2023-03-19T01:38:46.494Z,5.43
2023-03-19T01:41:13.508Z,5.57
2023-03-19T01:43:40.567Z,5.70
2023-03-19T01:46:22.502Z,5.03
2023-03-19T01:48:55.080Z,5.70
2023-03-19T01:51:26.322Z,5.57
2023-03-19T01:53:57.654Z,5.50
2023-03-19T01:56:30.083Z,5.67
2023-03-19T01:59:02.562Z,5.57
2023-03-19T02:01:34.210Z,5.40
2023-03-19T02:04:01.360Z,5.77
2023-03-19T02:06:30.272Z,5.33
2023-03-19T02:08:58.360Z,4.93
2023-03-19T02:11:26.355Z,5.07
2023-03-19T02:13:53.444Z,5.43
2023-03-19T02:16:20.622Z,4.90
2023-03-19T02:18:48.031Z,4.70
2023-03-19T02:21:20.122Z,5.00
2023-03-19T02:24:17.410Z,5.27
2023-03-19T02:26:46.498Z,4.77
2023-03-19T02:29:13.978Z,5.30
2023-03-19T02:31:41.036Z,5.03
2023-03-19T02:34:19.756Z,4.87
2023-03-19T02:36:52.100Z,5.13
2023-03-19T02:39:25.807Z,5.47
2023-03-19T02:41:54.713Z,5.90
2023-03-19T02:44:21.557Z,5.30
2023-03-19T02:46:48.399Z,5.40
2023-03-19T02:49:15.410Z,5.17
2023-03-19T02:51:42.293Z,5.07
2023-03-19T02:54:09.119Z,5.17
2023-03-19T02:56:35.940Z,5.23
2023-03-19T02:59:03.094Z,4.70
2023-03-19T03:01:30.137Z,4.80
2023-03-19T03:03:57.086Z,5.20
2023-03-19T03:06:23.851Z,4.43
2023-03-19T03:08:50.629Z,5.00
2023-03-19T03:11:17.438Z,5.63
2023-03-19T03:13:44.246Z,6.03
2023-03-19T03:16:11.046Z,5.27
2023-03-19T03:18:38.113Z,5.37
2023-03-19T03:21:04.986Z,5.50
2023-03-19T03:23:31.764Z,5.37
2023-03-19T03:25:58.573Z,5.37
2023-03-19T03:28:25.498Z,5.50
2023-03-19T03:30:57.967Z,5.40
2023-03-19T03:33:25.390Z,5.10
2023-03-19T03:35:52.509Z,4.90
2023-03-19T03:38:19.410Z,4.87
2023-03-19T03:40:49.683Z,5.17
2023-03-19T03:43:16.617Z,4.97
2023-03-19T03:45:44.779Z,4.60
2023-03-19T03:48:11.570Z,4.83
2023-03-19T03:50:38.491Z,4.53
2023-03-19T03:53:05.345Z,5.07
2023-03-19T03:55:32.152Z,5.60
2023-03-19T03:57:58.995Z,6.00
2023-03-19T04:00:26.632Z,5.47
2023-03-19T04:02:53.441Z,5.40
2023-03-19T04:05:20.253Z,4.87
2023-03-19T04:07:47.096Z,5.27
2023-03-19T04:10:14.214Z,5.30
2023-03-19T04:12:41.506Z,5.90
2023-03-19T04:15:11.057Z,5.97
2023-03-19T04:17:38.749Z,5.13
2023-03-19T04:20:06.315Z,5.40
2023-03-19T04:22:33.506Z,5.37
2023-03-19T04:25:00.517Z,4.67
2023-03-19T04:27:27.589Z,5.30
2023-03-19T04:29:54.824Z,4.80
2023-03-19T04:32:21.874Z,4.93
2023-03-19T04:34:48.588Z,4.60
2023-03-19T04:37:17.986Z,4.97
2023-03-19T04:39:44.765Z,4.50
2023-03-19T04:42:11.590Z,4.40
2023-03-19T04:44:38.562Z,4.60
2023-03-19T04:47:05.470Z,4.70
2023-03-19T04:49:32.201Z,4.77
2023-03-19T04:51:59.264Z,4.77
2023-03-19T04:54:26.072Z,5.13
2023-03-19T04:56:53.617Z,4.03
2023-03-19T04:59:22.815Z,5.63
2023-03-19T05:01:49.784Z,4.90
2023-03-19T05:04:17.742Z,5.03
2023-03-19T05:06:45.283Z,5.37
2023-03-19T05:09:11.972Z,5.17
2023-03-19T05:11:38.891Z,5.13
2023-03-19T05:14:05.736Z,5.90
2023-03-19T05:16:33.021Z,4.53
2023-03-19T05:18:59.812Z,5.53
2023-03-19T05:21:26.780Z,5.03
2023-03-19T05:23:54.828Z,4.90
2023-03-19T05:26:21.744Z,5.00
2023-03-19T05:28:48.573Z,4.90
2023-03-19T05:31:15.307Z,4.83
2023-03-19T05:33:42.053Z,5.10
2023-03-19T05:36:09.243Z,5.37
2023-03-19T05:38:36.005Z,5.23
2023-03-19T05:41:06.892Z,5.30
2023-03-19T05:43:33.904Z,5.73
2023-03-19T05:46:00.648Z,5.63
2023-03-19T05:48:27.572Z,5.60
2023-03-19T05:50:54.291Z,5.47
2023-03-19T05:53:21.726Z,5.10
2023-03-19T05:55:48.615Z,5.30
2023-03-19T05:58:16.943Z,5.80
2023-03-19T06:00:43.928Z,5.37
2023-03-19T06:03:11.096Z,5.57
2023-03-19T06:05:37.900Z,5.43
2023-03-19T06:08:04.951Z,5.40
2023-03-19T06:10:32.140Z,5.57
2023-03-19T06:12:58.992Z,6.10
2023-03-19T06:15:26.705Z,7.30
2023-03-19T06:17:53.444Z,6.90
2023-03-19T06:20:20.164Z,9.40
2023-03-19T06:22:46.980Z,8.90
2023-03-19T06:25:13.840Z,9.00
2023-03-19T06:27:40.632Z,9.53
2023-03-19T06:30:08.160Z,9.60
2023-03-19T06:32:35.301Z,9.10
2023-03-19T06:35:02.402Z,7.40
2023-03-19T06:37:29.172Z,7.57
2023-03-19T06:39:55.977Z,7.83
2023-03-19T06:42:23.110Z,9.20
2023-03-19T06:44:52.334Z,8.40
2023-03-19T06:47:20.236Z,8.33
2023-03-19T06:49:47.000Z,7.33
2023-03-19T06:52:13.869Z,7.40
2023-03-19T06:54:40.710Z,6.67
2023-03-19T06:57:07.592Z,7.00
2023-03-19T06:59:34.293Z,6.53
2023-03-19T07:02:01.007Z,6.43
2023-03-19T07:04:27.751Z,6.37
2023-03-19T07:06:54.510Z,6.17
2023-03-19T07:09:21.273Z,6.33
2023-03-19T07:11:48.009Z,7.07
2023-03-19T07:14:14.715Z,7.10
2023-03-19T07:16:41.624Z,7.03
2023-03-19T07:19:08.415Z,6.47
2023-03-19T07:21:35.096Z,6.87
2023-03-19T07:24:01.845Z,7.37
2023-03-19T07:26:28.557Z,7.00
2023-03-19T07:28:55.383Z,7.03
2023-03-19T07:31:22.541Z,6.90
2023-03-19T07:33:49.360Z,6.73
2023-03-19T07:36:16.406Z,7.17
2023-03-19T07:38:43.169Z,7.63
2023-03-19T07:41:09.930Z,7.47
2023-03-19T07:43:36.668Z,7.83
2023-03-19T07:46:03.533Z,7.67
2023-03-19T07:48:30.537Z,8.20
2023-03-19T07:50:57.254Z,8.70
2023-03-19T07:53:24.183Z,9.63
2023-03-19T07:55:51.045Z,9.37
2023-03-19T07:58:18.299Z,10.40
2023-03-19T08:00:45.580Z,10.17
2023-03-19T08:03:12.611Z,9.87
2023-03-19T08:05:39.781Z,9.87
2023-03-19T08:08:06.551Z,8.20
2023-03-19T08:10:35.572Z,9.30
2023-03-19T08:13:05.074Z,9.67
2023-03-19T08:15:39.386Z,8.13
2023-03-19T08:18:06.332Z,10.13
2023-03-19T08:20:33.561Z,8.67
2023-03-19T08:23:00.452Z,8.60
2023-03-19T08:25:27.608Z,9.30
2023-03-19T08:27:54.364Z,9.80
2023-03-19T08:30:21.210Z,8.90
2023-03-19T08:32:49.253Z,9.10
2023-03-19T08:35:16.339Z,9.47
2023-03-19T08:37:43.142Z,9.27
2023-03-19T08:40:10.395Z,9.87
2023-03-19T08:42:44.447Z,9.60
2023-03-19T08:45:13.798Z,9.07
2023-03-19T08:47:41.235Z,9.23
2023-03-19T08:50:08.727Z,10.03
2023-03-19T08:52:35.903Z,9.27
2023-03-19T08:55:03.489Z,10.80
2023-03-19T08:57:32.098Z,10.20
2023-03-19T08:59:58.981Z,8.77
2023-03-19T09:02:25.923Z,9.20
2023-03-19T09:04:52.716Z,9.07
2023-03-19T09:07:19.467Z,11.10
2023-03-19T09:09:46.346Z,11.37
2023-03-19T09:12:15.921Z,12.90
2023-03-19T09:14:43.466Z,17.07
2023-03-19T09:17:11.093Z,21.17
2023-03-19T09:19:38.264Z,16.43
2023-03-19T09:22:06.006Z,15.87
2023-03-19T09:24:33.252Z,15.17
2023-03-19T09:27:00.443Z,47.30
2023-03-19T09:29:27.200Z,35.97
2023-03-19T09:31:54.041Z,22.13
2023-03-19T09:34:20.734Z,16.40
2023-03-19T09:36:47.450Z,11.97
2023-03-19T09:39:17.428Z,9.80
2023-03-19T09:42:12.357Z,10.10
2023-03-19T09:44:45.301Z,11.57
2023-03-19T09:47:34.419Z,13.87
2023-03-19T09:50:13.653Z,7.90
2023-03-19T09:52:41.533Z,7.43
2023-03-19T09:55:31.535Z,6.87
2023-03-19T09:57:59.184Z,8.00
2023-03-19T10:00:32.832Z,12.37
2023-03-19T10:03:05.939Z,19.20
2023-03-19T10:05:57.433Z,11.37
2023-03-19T10:08:44.734Z,15.33
2023-03-19T10:11:25.069Z,10.63
2023-03-19T10:14:30.170Z,9.37
2023-03-19T10:17:00.738Z,9.50
2023-03-19T10:20:03.437Z,9.90
2023-03-19T10:22:45.182Z,5.97
2023-03-19T10:25:24.544Z,6.13
2023-03-19T10:28:00.792Z,6.63
2023-03-19T10:30:41.069Z,5.93
2023-03-19T10:33:18.623Z,6.17
2023-03-19T10:35:48.974Z,7.03
2023-03-19T10:38:22.021Z,7.77
2023-03-19T10:40:57.568Z,7.03
2023-03-19T10:43:26.364Z,7.20
2023-03-19T10:45:54.661Z,7.67
2023-03-19T10:48:28.359Z,7.17
2023-03-19T10:50:58.264Z,7.03
2023-03-19T10:53:26.325Z,6.70
2023-03-19T10:56:30.645Z,6.80
2023-03-19T10:59:02.408Z,6.18
2023-03-19T11:01:38.953Z,6.40
2023-03-19T11:04:15.238Z,5.32
2023-03-19T11:06:42.497Z,7.50
2023-03-19T11:09:09.605Z,8.50
2023-03-19T11:11:59.433Z,5.30
2023-03-19T11:14:34.582Z,7.20
2023-03-19T11:17:16.834Z,4.95
2023-03-19T11:19:53.499Z,3.67
2023-03-19T11:22:36.929Z,3.22
2023-03-19T11:25:19.863Z,2.78
2023-03-19T11:28:15.241Z,3.25
2023-03-19T11:30:51.337Z,3.70
2023-03-19T11:33:55.826Z,4.05
2023-03-19T11:36:40.269Z,4.35
2023-03-19T11:39:18.914Z,4.00
2023-03-19T11:41:58.917Z,3.15
2023-03-19T11:44:44.785Z,2.33
2023-03-19T11:47:32.614Z,2.20
2023-03-19T11:50:05.512Z,2.67
2023-03-19T11:52:41.755Z,2.40
2023-03-19T11:55:22.419Z,2.30
2023-03-19T11:58:04.915Z,3.00
2023-03-19T12:00:51.141Z,2.60
2023-03-19T12:03:39.524Z,2.10
2023-03-19T12:06:31.352Z,2.10
2023-03-19T12:09:09.805Z,2.10
2023-03-19T12:11:52.271Z,1.90
2023-03-19T12:14:41.382Z,1.85
2023-03-19T12:17:30.387Z,1.88
2023-03-19T12:20:15.674Z,2.05
2023-03-19T12:23:05.923Z,1.73
2023-03-19T12:25:57.113Z,2.13
2023-03-19T12:28:31.812Z,1.70
2023-03-19T12:31:35.511Z,2.00
2023-03-19T12:34:14.906Z,1.98
2023-03-19T12:37:09.275Z,2.22
2023-03-19T12:39:41.796Z,2.20
2023-03-19T12:42:15.227Z,2.35
2023-03-19T12:44:47.880Z,2.10
2023-03-19T12:47:25.027Z,2.55
2023-03-19T12:49:59.293Z,2.45
2023-03-19T12:52:58.265Z,2.17
2023-03-19T12:55:38.788Z,2.38
2023-03-19T12:58:21.224Z,2.25
2023-03-19T13:01:08.984Z,2.50
2023-03-19T13:03:57.917Z,2.50
2023-03-19T13:06:38.180Z,2.63
2023-03-19T13:09:13.258Z,2.85
2023-03-19T13:12:00.032Z,2.63
2023-03-19T13:14:36.743Z,2.33
2023-03-19T13:17:20.954Z,2.60
2023-03-19T13:19:52.738Z,2.55
2023-03-19T13:22:32.999Z,2.53
2023-03-19T13:25:01.497Z,2.65
2023-03-19T13:27:32.370Z,2.30
2023-03-19T13:30:11.361Z,2.88
2023-03-19T13:32:38.932Z,2.55
2023-03-19T13:35:28.127Z,2.47
2023-03-19T13:38:12.309Z,2.70
2023-03-19T13:40:56.868Z,2.70
2023-03-19T13:43:29.681Z,2.28
2023-03-19T13:46:25.637Z,2.80
2023-03-19T13:48:53.646Z,2.53
2023-03-19T13:51:20.481Z,2.88
2023-03-19T13:54:12.719Z,2.85
2023-03-19T13:57:07.896Z,2.65
2023-03-19T13:59:36.157Z,2.50
2023-03-19T14:02:22.319Z,2.67
2023-03-19T14:04:57.197Z,2.60
2023-03-19T14:07:30.861Z,2.90
2023-03-19T14:09:57.629Z,3.15
2023-03-19T14:12:34.333Z,2.97
2023-03-19T14:15:07.318Z,3.28
2023-03-19T14:17:42.131Z,2.67
2023-03-19T14:20:13.183Z,2.55
2023-03-19T14:22:59.024Z,2.47
2023-03-19T14:25:29.246Z,2.50
2023-03-19T14:27:59.902Z,2.58
2023-03-19T14:30:26.653Z,2.35
2023-03-19T14:32:56.723Z,2.20
2023-03-19T14:35:26.009Z,2.40
2023-03-19T14:37:54.287Z,2.00
2023-03-19T14:40:22.657Z,2.13
2023-03-19T14:43:08.085Z,2.10
2023-03-19T14:45:46.518Z,2.65
2023-03-19T14:48:45.677Z,2.05
2023-03-19T14:51:28.024Z,2.05
2023-03-19T14:53:58.677Z,2.13
2023-03-19T14:56:34.322Z,2.20
2023-03-19T14:59:04.178Z,2.10
2023-03-19T15:01:34.243Z,2.20
2023-03-19T15:04:12.919Z,1.92
2023-03-19T15:06:41.471Z,2.13
2023-03-19T15:09:31.263Z,2.30
2023-03-19T15:12:35.740Z,2.30
2023-03-19T15:15:21.432Z,3.22
2023-03-19T15:18:03.433Z,2.85
2023-03-19T15:20:42.524Z,2.60
2023-03-19T15:23:25.898Z,2.80
2023-03-19T15:26:01.266Z,3.00
2023-03-19T15:28:36.413Z,2.30
2023-03-19T15:31:26.776Z,2.70
2023-03-19T15:33:53.529Z,4.00
2023-03-19T15:36:30.509Z,8.60
2023-03-19T15:39:02.556Z,5.20
2023-03-19T15:41:32.364Z,4.75
2023-03-19T15:44:01.475Z,4.50
2023-03-19T15:46:33.272Z,6.32
2023-03-19T15:49:05.932Z,4.03
2023-03-19T15:51:33.468Z,2.97
2023-03-19T15:54:01.578Z,2.53
2023-03-19T15:56:29.230Z,2.35
2023-03-19T15:58:58.003Z,2.25
2023-03-19T16:01:26.277Z,2.38
2023-03-19T16:04:06.904Z,2.03
2023-03-19T16:06:39.442Z,1.90
2023-03-19T16:09:26.866Z,1.80
2023-03-19T16:11:54.730Z,2.00
2023-03-19T16:14:25.669Z,1.70
2023-03-19T16:17:00.546Z,1.83
2023-03-19T16:19:30.134Z,1.70
2023-03-19T16:21:57.472Z,1.60
2023-03-19T16:24:42.397Z,1.80
2023-03-19T16:27:17.669Z,2.22
2023-03-19T16:29:47.719Z,2.10
2023-03-19T16:32:22.334Z,2.10
2023-03-19T16:34:53.279Z,2.05
2023-03-19T16:37:34.120Z,1.92
2023-03-19T16:40:23.653Z,1.63
2023-03-19T16:42:52.470Z,2.20
2023-03-19T16:45:26.579Z,3.03
2023-03-19T16:48:03.925Z,5.00
2023-03-19T16:50:34.903Z,5.55
2023-03-19T16:53:05.502Z,4.07
2023-03-19T16:55:36.395Z,2.83
2023-03-19T16:58:13.219Z,2.90
2023-03-19T17:00:40.271Z,2.93
2023-03-19T17:03:13.284Z,2.83
2023-03-19T17:05:40.363Z,2.70
2023-03-19T17:08:07.165Z,3.00
2023-03-19T17:10:35.709Z,2.80
2023-03-19T17:13:03.122Z,2.50
2023-03-19T17:15:37.591Z,2.50
2023-03-19T17:18:16.509Z,2.97
2023-03-19T17:20:56.739Z,3.33
2023-03-19T17:23:26.858Z,3.20
2023-03-19T17:25:54.521Z,3.37
2023-03-19T17:28:21.377Z,2.90
2023-03-19T17:30:48.544Z,2.40
2023-03-19T17:33:26.232Z,2.37
2023-03-19T17:35:54.504Z,3.27
2023-03-19T17:38:23.104Z,3.27
2023-03-19T17:40:49.770Z,2.97
2023-03-19T17:43:16.459Z,3.07
2023-03-19T17:45:46.659Z,2.20
2023-03-19T17:48:23.807Z,2.00
2023-03-19T17:50:50.780Z,1.80
2023-03-19T17:53:18.652Z,2.40
2023-03-19T17:55:46.553Z,2.90
2023-03-19T17:58:19.578Z,2.53
2023-03-19T18:00:48.424Z,1.90
2023-03-19T18:03:18.579Z,2.70
2023-03-19T18:05:45.653Z,3.63
2023-03-19T18:08:18.048Z,3.50
2023-03-19T18:10:45.345Z,3.73
2023-03-19T18:13:12.096Z,3.10
2023-03-19T18:15:41.196Z,2.57
2023-03-19T18:18:22.309Z,2.90
2023-03-19T18:20:49.910Z,2.53
2023-03-19T18:23:17.127Z,2.33
2023-03-19T18:25:45.321Z,2.60
2023-03-19T18:28:13.183Z,2.17
2023-03-19T18:30:41.699Z,2.20
2023-03-19T18:33:15.726Z,4.20
2023-03-19T18:35:45.056Z,6.03
2023-03-19T18:38:24.352Z,14.80
2023-03-19T18:40:52.214Z,15.60
2023-03-19T18:43:19.613Z,15.17
2023-03-19T18:45:50.966Z,17.20
2023-03-19T18:48:23.152Z,14.00
2023-03-19T18:50:50.601Z,9.60
2023-03-19T18:53:17.919Z,9.40
2023-03-19T18:55:45.725Z,9.60
2023-03-19T18:58:24.262Z,12.30
2023-03-19T19:00:51.908Z,12.33
2023-03-19T19:03:21.254Z,20.43
2023-03-19T19:05:49.657Z,39.67
2023-03-19T19:08:18.668Z,34.17
2023-03-19T19:10:58.780Z,33.30
2023-03-19T19:13:30.216Z,26.77
2023-03-19T19:15:57.078Z,24.70
2023-03-19T19:18:27.234Z,19.03
2023-03-19T19:20:54.392Z,8.50
2023-03-19T19:23:22.238Z,6.70
2023-03-19T19:25:55.186Z,6.30
2023-03-19T19:28:27.861Z,5.73
2023-03-19T19:30:57.524Z,5.40
2023-03-19T19:33:27.941Z,5.23
2023-03-19T19:35:55.349Z,5.70
2023-03-19T19:38:22.112Z,6.17
2023-03-19T19:40:52.330Z,6.57
2023-03-19T19:43:24.936Z,8.67
2023-03-19T19:45:53.967Z,7.80
2023-03-19T19:48:24.597Z,6.60
2023-03-19T19:50:52.038Z,7.20
2023-03-19T19:53:19.463Z,5.63
2023-03-19T19:55:46.639Z,4.80
2023-03-19T19:58:19.739Z,7.30
2023-03-19T20:01:00.201Z,7.10
2023-03-19T20:03:32.177Z,6.53
2023-03-19T20:06:00.296Z,6.17
2023-03-19T20:08:27.221Z,6.27
2023-03-19T20:10:55.278Z,6.33
2023-03-19T20:13:34.072Z,7.00
2023-03-19T20:16:02.632Z,5.30
2023-03-19T20:18:33.365Z,5.73
2023-03-19T20:21:00.170Z,6.13
2023-03-19T20:23:26.924Z,6.47
2023-03-19T20:25:55.019Z,7.47
2023-03-19T20:28:34.061Z,7.00
2023-03-19T20:31:01.865Z,7.70
2023-03-19T20:33:31.220Z,7.73
2023-03-19T20:35:58.359Z,6.80
2023-03-19T20:38:27.117Z,6.47
2023-03-19T20:40:58.885Z,5.80
2023-03-19T20:43:37.473Z,8.90
2023-03-19T20:46:07.785Z,10.73
2023-03-19T20:48:34.659Z,7.77
2023-03-19T20:51:02.457Z,6.07
2023-03-19T20:53:29.616Z,6.03
2023-03-19T20:55:57.312Z,5.27
2023-03-19T20:58:35.783Z,5.23
2023-03-19T21:01:02.973Z,5.67
2023-03-19T21:03:31.921Z,5.67
2023-03-19T21:06:04.657Z,7.93
2023-03-19T21:08:39.668Z,6.20
2023-03-19T21:11:12.500Z,6.43
2023-03-19T21:13:39.671Z,6.43
2023-03-19T21:16:07.135Z,6.57
2023-03-19T21:18:33.829Z,6.97
2023-03-19T21:21:00.774Z,6.67
2023-03-19T21:23:37.233Z,6.33
2023-03-19T21:26:24.739Z,6.67
2023-03-19T21:29:00.037Z,6.10
2023-03-19T21:31:27.692Z,6.60
2023-03-19T21:33:56.533Z,5.90
2023-03-19T21:36:25.557Z,6.17
2023-03-19T21:38:52.484Z,6.67
2023-03-19T21:41:28.757Z,7.77
2023-03-19T21:43:59.473Z,7.27
2023-03-19T21:46:29.562Z,7.43
2023-03-19T21:48:57.770Z,7.53
2023-03-19T21:51:25.966Z,7.87
2023-03-19T21:53:52.743Z,7.40
2023-03-19T21:56:34.010Z,7.60
2023-03-19T21:59:03.486Z,7.40
2023-03-19T22:01:30.494Z,7.50
2023-03-19T22:03:58.207Z,7.60
2023-03-19T22:06:25.473Z,7.40
2023-03-19T22:08:54.074Z,7.83
2023-03-19T22:11:31.357Z,7.70
2023-03-19T22:14:06.333Z,7.53
2023-03-19T22:16:33.877Z,7.30
2023-03-19T22:19:01.697Z,9.03
2023-03-19T22:21:30.760Z,8.80
2023-03-19T22:23:57.510Z,9.70
2023-03-19T22:26:36.297Z,10.53
2023-03-19T22:29:23.620Z,10.47
2023-03-19T22:31:52.018Z,11.47
2023-03-19T22:34:22.211Z,12.87
2023-03-19T22:36:50.010Z,12.80
2023-03-19T22:39:17.269Z,12.70
2023-03-19T22:41:47.868Z,12.63
2023-03-19T22:44:29.732Z,11.37
2023-03-19T22:47:01.693Z,9.53
2023-03-19T22:49:29.846Z,8.83
2023-03-19T22:51:57.661Z,9.37
2023-03-19T22:54:24.614Z,9.00
2023-03-19T22:56:51.284Z,9.37
2023-03-19T22:59:18.576Z,9.33
2023-03-19T23:01:47.247Z,10.07
2023-03-19T23:04:25.414Z,9.83
2023-03-19T23:06:54.172Z,12.73
2023-03-19T23:09:24.158Z,11.70
2023-03-19T23:11:51.825Z,10.27
2023-03-19T23:14:29.174Z,10.13
2023-03-19T23:19:28.069Z,12.67
2023-03-19T23:21:55.644Z,13.57
2023-03-19T23:24:24.058Z,13.47
2023-03-19T23:26:53.173Z,12.07
2023-03-19T23:29:26.912Z,11.00
2023-03-19T23:31:53.647Z,9.20
2023-03-19T23:34:20.366Z,9.20
2023-03-19T23:36:47.393Z,8.63
2023-03-19T23:39:15.209Z,8.67
2023-03-19T23:41:48.385Z,8.33
2023-03-19T23:44:17.772Z,8.10
2023-03-19T23:46:46.649Z,7.97
2023-03-19T23:49:15.371Z,7.87
2023-03-19T23:51:42.140Z,7.80
2023-03-19T23:54:39.312Z,7.00
2023-03-19T23:57:13.367Z,6.63
2023-03-19T23:59:42.821Z,7.40
